Time;durP1;ratioP1;P1;durP2;ratioP2;P2;SDS_P1;SDS_P2;PMS_P1;PMS_P2;Temp;Humidity;BMP_temperature;BMP_pressure;BME280_temperature;BME280_humidity;BME280_pressure;Samples;Min_cycle;Max_cycle;Signal;HPM_P1;HPM_P2
2022/04/24 00:00:19;;;;;;;;;18.80;17.40;;;;;16.36;58.17;98664.00;5055137;28;8862;-79
2022/04/24 00:03:03;;;;;;;;;19.20;18.80;;;;;16.35;58.06;98666.69;5024566;28;8989;-78
2022/04/24 00:05:32;;;;;;;;;18.00;15.80;;;;;16.44;58.24;98666.34;5069897;28;8869;-79
2022/04/24 00:08:02;;;;;;;;;16.20;16.00;;;;;16.44;58.05;98670.75;5068720;28;8846;-79
2022/04/24 00:10:30;;;;;;;;;21.80;19.80;;;;;16.46;58.02;98664.50;5068185;28;8858;-77
2022/04/24 00:12:59;;;;;;;;;22.20;18.20;;;;;16.43;58.24;98658.53;5069709;28;9627;-78
2022/04/24 00:15:27;;;;;;;;;21.40;20.20;;;;;16.49;58.04;98659.13;5051355;28;8875;-78
2022/04/24 00:17:56;;;;;;;;;19.20;15.60;;;;;16.52;58.33;98669.56;5051031;28;8846;-80
2022/04/24 00:20:25;;;;;;;;;22.40;19.20;;;;;16.54;58.09;98666.84;5069010;28;8852;-79
2022/04/24 00:22:54;;;;;;;;;16.40;15.60;;;;;16.57;57.81;98674.63;5050283;28;8955;-78
2022/04/24 00:25:24;;;;;;;;;19.00;16.20;;;;;16.58;57.66;98673.72;5084279;28;8835;-79
2022/04/24 00:27:52;;;;;;;;;18.00;17.80;;;;;16.62;57.65;98674.47;5068918;28;9706;-79
2022/04/24 00:30:21;;;;;;;;;15.60;14.80;;;;;16.66;57.54;98668.16;5067906;28;8854;-78
2022/04/24 00:32:49;;;;;;;;;16.40;15.40;;;;;16.72;57.51;98671.38;5048617;28;8857;-78
2022/04/24 00:35:18;;;;;;;;;29.40;24.80;;;;;16.77;57.21;98674.69;5049226;28;8861;-78
2022/04/24 00:37:46;;;;;;;;;20.60;16.80;;;;;16.86;56.63;98664.75;5049313;28;8899;-79
2022/04/24 00:40:15;;;;;;;;;12.20;11.20;;;;;16.87;56.50;98659.41;5051156;28;8943;-78
2022/04/24 00:42:45;;;;;;;;;19.00;17.00;;;;;16.87;56.80;98661.19;5053475;28;8873;-78
2022/04/24 00:45:14;;;;;;;;;18.00;17.40;;;;;16.83;56.63;98657.81;5053434;28;8871;-78
2022/04/24 00:47:47;;;;;;;;;23.60;20.00;;;;;16.80;56.75;98676.34;5068498;28;8868;-79
2022/04/24 00:50:17;;;;;;;;;17.20;16.80;;;;;16.81;56.96;98667.53;5053355;28;8849;-79
2022/04/24 00:52:46;;;;;;;;;13.00;10.80;;;;;16.85;56.20;98671.78;5051559;28;8882;-79
2022/04/24 00:55:16;;;;;;;;;10.00;9.20;;;;;16.88;56.13;98669.03;5068499;28;8853;-78
2022/04/24 00:57:46;;;;;;;;;15.80;15.20;;;;;16.89;55.74;98662.00;5052679;28;8841;-79
2022/04/24 01:00:16;;;;;;;;;16.00;15.60;;;;;16.89;55.86;98664.63;5050890;28;8856;-78
2022/04/24 01:02:44;;;;;;;;;16.60;15.60;;;;;16.95;55.63;98665.22;5053212;28;8868;-78
2022/04/24 01:05:16;;;;;;;;;14.00;14.00;;;;;16.94;55.66;98660.88;5052861;28;9599;-78
2022/04/24 01:07:44;;;;;;;;;15.80;13.20;;;;;17.01;55.21;98661.47;5051694;28;8860;-78
2022/04/24 01:10:13;;;;;;;;;15.40;12.80;;;;;17.02;54.69;98657.09;5068343;28;8883;-79
2022/04/24 01:12:42;;;;;;;;;13.40;11.00;;;;;17.01;54.98;98645.66;5053057;28;8953;-79
2022/04/24 01:15:12;;;;;;;;;13.00;12.20;;;;;17.05;54.82;98639.38;5017035;28;9000;-78
2022/04/24 01:17:40;;;;;;;;;15.40;13.40;;;;;17.07;54.55;98641.94;5052496;28;8836;-79
2022/04/24 01:20:11;;;;;;;;;10.40;10.40;;;;;17.08;54.40;98638.38;5067578;28;8856;-78
2022/04/24 01:22:41;;;;;;;;;13.20;12.80;;;;;17.06;54.09;98632.31;5067578;28;8857;-78
2022/04/24 01:25:10;;;;;;;;;11.60;11.60;;;;;17.06;54.35;98627.91;5052278;28;8872;-79
2022/04/24 01:27:39;;;;;;;;;15.40;12.20;;;;;17.11;53.85;98633.84;5052172;28;8833;-79
2022/04/24 01:30:09;;;;;;;;;13.40;10.60;;;;;17.14;53.51;98628.47;5060007;28;9571;-77
2022/04/24 01:32:38;;;;;;;;;12.60;12.20;;;;;17.18;53.39;98633.59;5071883;28;9042;-78
2022/04/24 01:35:08;;;;;;;;;9.00;8.80;;;;;17.19;53.15;98627.41;5084977;28;8841;-81
2022/04/24 01:37:36;;;;;;;;;15.20;12.80;;;;;17.20;53.15;98632.63;5051364;28;8849;-79
2022/04/24 01:40:07;;;;;;;;;11.40;10.60;;;;;17.11;53.28;98636.47;5052050;28;8871;-78
2022/04/24 01:42:36;;;;;;;;;15.60;13.60;;;;;17.09;53.50;98640.97;5034404;28;9032;-78
2022/04/24 01:45:05;;;;;;;;;16.20;15.00;;;;;17.00;53.92;98643.97;5052850;28;8845;-78
2022/04/24 01:47:34;;;;;;;;;15.00;14.40;;;;;16.87;53.82;98634.88;5052127;28;8894;-78
2022/04/24 01:50:03;;;;;;;;;14.60;14.60;;;;;16.70;54.77;98631.09;5057288;28;8919;-78
2022/04/24 01:52:32;;;;;;;;;15.40;13.80;;;;;16.56;55.18;98629.03;5057916;28;8911;-78
2022/04/24 01:55:00;;;;;;;;;16.20;15.20;;;;;16.50;55.15;98625.78;5053062;28;9011;-78
2022/04/24 01:57:30;;;;;;;;;18.00;17.00;;;;;16.51;55.30;98620.44;5075293;28;9647;-79
2022/04/24 01:59:58;;;;;;;;;14.40;14.40;;;;;16.52;55.33;98616.91;5072620;28;8858;-78
2022/04/24 02:02:27;;;;;;;;;13.80;13.00;;;;;16.59;54.72;98624.56;5053553;28;8870;-78
2022/04/24 02:04:56;;;;;;;;;14.40;12.20;;;;;16.59;54.50;98609.63;5072421;28;8842;-79
2022/04/24 02:07:24;;;;;;;;;10.20;10.20;;;;;16.67;54.10;98606.66;5070464;28;8850;-79
2022/04/24 02:09:53;;;;;;;;;12.20;10.60;;;;;16.55;54.35;98600.13;5072351;28;8858;-78
2022/04/24 02:12:22;;;;;;;;;11.00;9.40;;;;;16.63;53.63;98603.31;5071821;28;8875;-79
2022/04/24 02:14:51;;;;;;;;;9.20;9.00;;;;;16.74;53.08;98587.06;5071747;28;8835;-79
2022/04/24 02:17:20;;;;;;;;;9.00;9.00;;;;;16.83;52.59;98584.09;5070447;28;8872;-79
2022/04/24 02:19:48;;;;;;;;;7.00;7.00;;;;;16.93;52.78;98584.56;5071145;28;8858;-78
2022/04/24 02:22:17;;;;;;;;;9.20;9.00;;;;;16.99;52.29;98586.94;5034451;28;8989;-79
2022/04/24 02:24:46;;;;;;;;;9.40;9.40;;;;;16.83;52.78;98584.09;5066032;28;8853;-79
2022/04/24 02:27:14;;;;;;;;;10.80;10.80;;;;;16.99;52.30;98581.66;5051239;28;8929;-79
2022/04/24 02:29:43;;;;;;;;;9.00;8.20;;;;;16.83;52.45;98581.47;5050834;28;8860;-78
2022/04/24 02:32:13;;;;;;;;;9.80;9.80;;;;;16.94;52.77;98581.03;5050628;28;8865;-78
2022/04/24 02:34:41;;;;;;;;;11.20;10.00;;;;;16.97;52.37;98583.50;5049293;28;9704;-79
2022/04/24 02:37:13;;;;;;;;;12.40;9.80;;;;;16.92;52.54;98585.50;5049447;28;8879;-80
2022/04/24 02:39:41;;;;;;;;;11.00;9.20;;;;;16.99;52.59;98581.66;5050610;28;8868;-79
2022/04/24 02:42:10;;;;;;;;;10.60;10.00;;;;;17.07;52.44;98584.84;5050474;28;8845;-77
2022/04/24 02:44:39;;;;;;;;;9.20;9.20;;;;;17.13;52.12;98581.09;5050338;28;8868;-78
2022/04/24 02:47:08;;;;;;;;;11.40;11.40;;;;;17.18;51.88;98588.78;5066311;28;8861;-78
2022/04/24 02:49:38;;;;;;;;;12.80;11.80;;;;;17.12;52.44;98582.84;5049448;28;8857;-79
2022/04/24 02:52:07;;;;;;;;;12.60;11.40;;;;;17.12;51.97;98596.03;5080767;28;8876;-79
2022/04/24 02:54:35;;;;;;;;;5.80;4.00;;;;;16.96;52.66;98595.00;5070357;28;9008;-79
2022/04/24 02:57:06;;;;;;;;;11.20;9.80;;;;;17.04;52.77;98592.03;5085956;28;8857;-78
2022/04/24 02:59:34;;;;;;;;;10.20;10.20;;;;;16.88;52.94;98587.41;5070248;28;9568;-78
2022/04/24 03:02:03;;;;;;;;;13.80;13.20;;;;;16.82;53.39;98597.28;5035561;28;8892;-79
2022/04/24 03:04:33;;;;;;;;;9.40;9.00;;;;;16.72;53.72;98595.03;5070805;28;9600;-78
2022/04/24 03:07:03;;;;;;;;;9.00;9.00;;;;;16.55;54.06;98589.59;5070740;28;8843;-78
2022/04/24 03:09:32;;;;;;;;;12.20;12.20;;;;;16.62;53.84;98584.97;5053236;28;8885;-80
2022/04/24 03:12:01;;;;;;;;;14.60;13.40;;;;;16.57;53.76;98580.72;5086354;28;8831;-79
2022/04/24 03:14:29;;;;;;;;;11.40;11.40;;;;;16.56;54.07;98581.66;5070343;28;8839;-79
2022/04/24 03:16:58;;;;;;;;;10.80;9.40;;;;;16.65;54.04;98588.31;5070561;28;8872;-79
2022/04/24 03:19:27;;;;;;;;;9.80;9.80;;;;;16.74;53.27;98577.41;5069977;28;9585;-78
2022/04/24 03:21:56;;;;;;;;;10.40;10.40;;;;;16.75;53.29;98579.13;5068773;28;8854;-79
2022/04/24 03:24:25;;;;;;;;;10.00;10.00;;;;;16.70;52.94;98585.50;5068939;28;8969;-78
2022/04/24 03:26:54;;;;;;;;;13.20;12.20;;;;;16.62;53.13;98575.28;5070057;28;8884;-79
2022/04/24 03:29:24;;;;;;;;;11.60;11.60;;;;;16.57;53.44;98578.09;5066481;28;8878;-79
2022/04/24 03:31:53;;;;;;;;;10.60;9.40;;;;;16.57;53.11;98583.34;5066440;28;8849;-78
2022/04/24 03:34:21;;;;;;;;;10.60;10.60;;;;;16.74;53.09;98581.81;5052379;28;8871;-78
2022/04/24 03:36:50;;;;;;;;;9.80;9.20;;;;;16.74;52.59;98584.44;5049940;28;9397;-79
2022/04/24 03:39:20;;;;;;;;;9.60;9.60;;;;;16.66;52.75;98591.81;5050302;28;8932;-78
2022/04/24 03:41:50;;;;;;;;;10.00;10.00;;;;;16.61;52.38;98594.63;5050216;28;8926;-79
2022/04/24 03:44:18;;;;;;;;;11.60;10.40;;;;;16.59;52.44;98599.09;5014575;28;8880;-79
2022/04/24 03:46:47;;;;;;;;;14.00;14.00;;;;;16.57;52.10;98598.28;5015493;28;8963;-78
2022/04/24 03:49:16;;;;;;;;;14.40;10.00;;;;;16.58;51.85;98594.75;5049547;28;8860;-80
2022/04/24 03:51:44;;;;;;;;;10.60;9.80;;;;;16.43;52.17;98593.59;5049797;28;8849;-79
2022/04/24 03:54:13;;;;;;;;;9.20;9.00;;;;;16.59;51.78;98593.81;5048342;28;8849;-79
2022/04/24 03:56:41;;;;;;;;;8.40;8.40;;;;;16.48;52.40;98591.63;5049307;28;8945;-78
2022/04/24 03:59:11;;;;;;;;;9.80;9.80;;;;;16.62;51.97;98588.44;5049539;28;8865;-78
2022/04/24 04:01:40;;;;;;;;;11.00;11.00;;;;;16.50;51.65;98589.81;5081337;28;8853;-78
2022/04/24 04:04:09;;;;;;;;;10.00;10.00;;;;;16.46;52.07;98593.44;5049068;28;8872;-79
2022/04/24 04:06:38;;;;;;;;;10.00;10.00;;;;;16.47;52.34;98599.59;5049573;28;8868;-78
2022/04/24 04:09:07;;;;;;;;;10.20;10.20;;;;;16.43;51.93;98600.63;5055147;28;8934;-78
2022/04/24 04:11:35;;;;;;;;;10.60;10.40;;;;;16.49;52.27;98601.22;5052642;28;8848;-79
2022/04/24 04:14:04;;;;;;;;;12.20;10.40;;;;;16.44;52.15;98603.19;5048680;28;9621;-79
2022/04/24 04:16:34;;;;;;;;;11.00;11.00;;;;;16.50;51.92;98607.34;5049974;28;8872;-78
2022/04/24 04:19:03;;;;;;;;;10.00;9.00;;;;;16.41;51.91;98602.44;5082009;28;8867;-79
2022/04/24 04:21:31;;;;;;;;;9.00;8.80;;;;;16.40;52.32;98601.59;5048278;28;8968;-80
2022/04/24 04:24:00;;;;;;;;;9.40;8.20;;;;;16.66;51.59;98597.91;5031590;28;8841;-78
2022/04/24 04:26:29;;;;;;;;;9.80;9.80;;;;;16.85;51.23;98599.84;5049540;28;8861;-78
2022/04/24 04:28:57;;;;;;;;;8.60;8.60;;;;;16.93;50.51;98603.84;5055725;28;8880;-79
2022/04/24 04:31:26;;;;;;;;;8.40;8.40;;;;;16.95;50.09;98593.25;5056033;28;8868;-79
2022/04/24 04:33:57;;;;;;;;;10.20;9.60;;;;;17.00;49.41;98596.56;5049172;28;8833;-78
2022/04/24 04:36:25;;;;;;;;;7.20;6.20;;;;;17.01;49.86;98594.78;5049477;28;8938;-79
2022/04/24 04:38:54;;;;;;;;;7.00;7.00;;;;;17.02;49.35;98600.00;5049343;28;8853;-79
2022/04/24 04:41:22;;;;;;;;;7.80;7.00;;;;;16.93;48.98;98592.47;5047876;28;8837;-80
2022/04/24 04:43:51;;;;;;;;;7.00;7.00;;;;;17.03;48.52;98598.19;5065150;28;8958;-77
2022/04/24 04:46:20;;;;;;;;;8.00;7.20;;;;;16.93;48.65;98593.31;5049193;28;8856;-78
2022/04/24 04:48:49;;;;;;;;;7.40;6.60;;;;;17.03;48.48;98604.34;5064213;28;8948;-79
2022/04/24 04:51:19;;;;;;;;;8.00;7.40;;;;;17.05;48.34;98596.34;5048639;28;8971;-78
2022/04/24 04:53:47;;;;;;;;;9.20;8.60;;;;;17.03;48.71;98596.44;5029935;28;8974;-79
2022/04/24 04:56:17;;;;;;;;;14.80;14.80;;;;;17.20;48.64;98592.22;5047171;28;8852;-78
2022/04/24 04:58:45;;;;;;;;;6.80;6.80;;;;;17.28;47.72;98593.63;5048740;28;9039;-80
2022/04/24 05:01:14;;;;;;;;;9.40;9.40;;;;;17.25;48.03;98600.78;5048375;28;8845;-78
2022/04/24 05:03:43;;;;;;;;;7.80;7.00;;;;;17.37;47.59;98599.41;5063896;28;8852;-79
2022/04/24 05:06:11;;;;;;;;;8.00;7.40;;;;;17.42;47.45;98592.16;5048225;28;8845;-78
2022/04/24 05:08:41;;;;;;;;;8.40;6.40;;;;;17.49;47.42;98594.44;5048686;28;8887;-80
2022/04/24 05:11:10;;;;;;;;;9.40;8.00;;;;;17.51;47.46;98600.50;5029822;28;8868;-78
2022/04/24 05:13:39;;;;;;;;;9.00;9.00;;;;;17.52;47.35;98604.88;5048408;28;8878;-79
2022/04/24 05:16:07;;;;;;;;;7.40;7.40;;;;;17.68;47.26;98591.00;5048555;28;8864;-79
2022/04/24 05:18:36;;;;;;;;;8.80;7.60;;;;;17.61;47.23;98598.31;5063966;28;8863;-80
2022/04/24 05:21:05;;;;;;;;;6.40;6.40;;;;;17.56;47.21;98599.44;5048749;28;8856;-79
2022/04/24 05:23:34;;;;;;;;;9.00;9.00;;;;;17.77;46.65;98600.25;5065300;28;8988;-78
2022/04/24 05:26:04;;;;;;;;;9.60;9.60;;;;;17.90;46.85;98599.69;5076478;28;9600;-78
2022/04/24 05:28:32;;;;;;;;;10.20;9.20;;;;;17.98;46.58;98596.69;5072786;28;8993;-79
2022/04/24 05:31:01;;;;;;;;;25.80;24.80;;;;;18.05;46.61;98592.84;5070415;28;8858;-78
2022/04/24 05:33:30;;;;;;;;;11.40;11.20;;;;;18.14;46.69;98593.34;5088194;28;8846;-79
2022/04/24 05:35:58;;;;;;;;;10.60;7.80;;;;;18.15;45.29;98598.56;5072528;28;8846;-79
2022/04/24 05:38:30;;;;;;;;;9.00;7.80;;;;;18.21;45.90;98586.84;5087541;28;8853;-79
2022/04/24 05:40:59;;;;;;;;;7.00;7.00;;;;;18.25;45.34;98591.91;5054260;28;8854;-78
2022/04/24 05:43:29;;;;;;;;;7.40;6.80;;;;;18.28;45.83;98594.41;5104442;28;8892;-79
2022/04/24 05:45:58;;;;;;;;;9.40;9.40;;;;;18.38;44.66;98588.69;5069554;28;8843;-79
2022/04/24 05:48:27;;;;;;;;;7.40;7.40;;;;;18.35;44.58;98586.19;5069076;28;8836;-80
2022/04/24 05:50:55;;;;;;;;;8.40;8.40;;;;;18.29;44.74;98582.06;5069551;28;9061;-80
2022/04/24 05:53:24;;;;;;;;;7.00;7.00;;;;;18.43;44.19;98579.63;5086353;28;8860;-78
2022/04/24 05:55:52;;;;;;;;;8.80;7.60;;;;;18.42;44.54;98574.41;5069269;28;8866;-79
2022/04/24 05:58:21;;;;;;;;;8.20;8.00;;;;;18.47;43.58;98577.69;5052837;28;8840;-80
2022/04/24 06:00:51;;;;;;;;;6.20;6.20;;;;;18.63;43.84;98580.44;5052330;28;8871;-79
2022/04/24 06:03:20;;;;;;;;;12.60;11.80;;;;;18.82;43.89;98575.13;5035562;28;8941;-79
2022/04/24 06:05:49;;;;;;;;;7.60;7.00;;;;;18.95;44.67;98578.00;5052063;28;8847;-78
2022/04/24 06:08:17;;;;;;;;;10.00;9.00;;;;;19.06;44.67;98575.69;5068252;28;8844;-81
2022/04/24 06:10:47;;;;;;;;;12.40;12.40;;;;;19.22;44.70;98568.66;5051799;28;8851;-78
2022/04/24 06:13:15;;;;;;;;;9.80;8.80;;;;;19.41;44.22;98571.22;5068377;28;8909;-78
2022/04/24 06:15:44;;;;;;;;;12.40;10.80;;;;;19.58;43.60;98572.09;5068531;28;8848;-79
2022/04/24 06:18:14;;;;;;;;;11.00;9.60;;;;;19.75;43.72;98566.78;5068399;28;8869;-79
2022/04/24 06:20:43;;;;;;;;;33.75;31.00;;;;;19.98;44.25;98562.91;5068507;28;8864;-79
2022/04/24 06:23:12;;;;;;;;;22.80;21.60;;;;;20.17;44.34;98567.16;5068515;28;8867;-79
2022/04/24 06:25:41;;;;;;;;;18.80;18.40;;;;;20.35;45.58;98555.56;5051631;28;9684;-79
2022/04/24 06:28:10;;;;;;;;;20.20;20.00;;;;;20.50;46.13;98556.47;5068587;28;8986;-80
2022/04/24 06:30:40;;;;;;;;;11.80;11.80;;;;;20.66;44.56;98555.63;5051813;28;8879;-80
2022/04/24 06:33:09;;;;;;;;;16.00;14.60;;;;;20.75;45.98;98555.09;5048488;28;8850;-78
2022/04/24 06:35:41;;;;;;;;;19.40;18.60;;;;;20.91;45.78;98555.91;5048074;28;8924;-78
2022/04/24 06:38:10;;;;;;;;;16.40;16.00;;;;;21.01;45.40;98556.22;5047217;28;8818;-80
2022/04/24 06:40:39;;;;;;;;;17.20;15.20;;;;;21.11;45.44;98552.06;5031294;28;8900;-78
2022/04/24 06:43:08;;;;;;;;;19.60;18.00;;;;;21.25;45.30;98555.69;5047974;28;8870;-80
2022/04/24 06:45:39;;;;;;;;;19.00;19.00;;;;;21.33;45.30;98550.78;5047817;28;8826;-80
2022/04/24 06:48:10;;;;;;;;;19.00;18.20;;;;;21.40;44.62;98562.75;5047843;28;8999;-78
2022/04/24 06:50:41;;;;;;;;;15.20;15.20;;;;;21.51;45.28;98559.44;5018042;28;8850;-79
2022/04/24 06:53:12;;;;;;;;;16.20;15.40;;;;;21.52;44.79;98563.81;5018842;28;8844;-80
2022/04/24 06:55:43;;;;;;;;;13.00;13.00;;;;;21.63;44.21;98561.34;5068024;28;8890;-79
2022/04/24 06:58:14;;;;;;;;;20.80;20.80;;;;;21.71;44.46;98569.69;5068218;28;8836;-80
2022/04/24 07:00:45;;;;;;;;;37.50;32.75;;;;;21.76;44.33;98562.31;5068506;28;8848;-79
2022/04/24 07:03:34;;;;;;;;;43.25;35.50;;;;;21.75;43.61;98562.38;5068813;28;8861;-79
2022/04/24 07:06:04;;;;;;;;;20.80;20.00;;;;;21.74;43.59;98566.84;5034485;28;8954;-80
2022/04/24 07:08:34;;;;;;;;;15.00;15.00;;;;;21.70;43.39;98568.00;5040840;28;8865;-79
2022/04/24 07:11:02;;;;;;;;;43.50;35.50;;;;;21.67;43.48;98570.84;5050393;28;8887;-78
2022/04/24 07:13:31;;;;;;;;;22.60;22.60;;;;;21.65;43.81;98561.28;5090645;28;8833;-80
2022/04/24 07:15:59;;;;;;;;;19.00;18.20;;;;;21.56;43.94;98562.69;5050932;28;9019;-79
2022/04/24 07:18:30;;;;;;;;;16.40;16.40;;;;;21.64;44.27;98565.69;5051102;28;8865;-80
2022/04/24 07:20:59;;;;;;;;;19.20;18.00;;;;;21.65;43.94;98558.63;5048693;28;9810;-79
2022/04/24 07:23:30;;;;;;;;;14.40;14.00;;;;;21.61;43.77;98557.94;5050306;28;8868;-79
2022/04/24 07:25:58;;;;;;;;;18.20;18.20;;;;;21.62;43.68;98557.00;5048526;28;8879;-79
2022/04/24 07:28:27;;;;;;;;;18.60;18.00;;;;;21.60;43.55;98553.56;5065398;28;8855;-80
2022/04/24 07:30:56;;;;;;;;;15.60;14.60;;;;;21.63;43.27;98544.59;5048391;28;8864;-79
2022/04/24 07:33:24;;;;;;;;;18.40;14.40;;;;;21.69;43.50;98549.50;5064502;28;8853;-80
2022/04/24 07:35:53;;;;;;;;;17.20;16.60;;;;;21.77;43.51;98553.38;5049950;28;8871;-79
2022/04/24 07:38:22;;;;;;;;;35.00;31.60;;;;;21.89;42.24;98543.81;5065151;28;8976;-79
2022/04/24 07:40:52;;;;;;;;;29.40;27.40;;;;;22.05;42.58;98546.34;5064977;28;8956;-79
2022/04/24 07:43:20;;;;;;;;;19.00;17.20;;;;;22.20;42.23;98539.19;5049397;28;8849;-79
2022/04/24 07:45:49;;;;;;;;;16.20;14.40;;;;;22.16;42.25;98541.19;5049677;28;8853;-79
2022/04/24 07:48:19;;;;;;;;;14.60;13.40;;;;;22.27;41.67;98540.53;5049361;28;8864;-79
2022/04/24 07:50:49;;;;;;;;;16.00;15.00;;;;;22.41;41.35;98542.28;5049501;28;9026;-79
2022/04/24 07:53:19;;;;;;;;;16.40;15.80;;;;;22.43;39.95;98536.88;5048461;28;8883;-79
2022/04/24 07:55:50;;;;;;;;;16.80;16.40;;;;;22.54;39.97;98547.66;5049945;28;8873;-79
2022/04/24 07:58:20;;;;;;;;;26.20;23.00;;;;;22.62;39.86;98544.50;5048225;28;8852;-78
2022/04/24 08:00:49;;;;;;;;;15.40;13.80;;;;;22.74;39.50;98533.91;5048034;28;8861;-79
2022/04/24 08:03:19;;;;;;;;;16.60;14.20;;;;;22.91;39.54;98532.78;5049326;28;8938;-78
2022/04/24 08:05:51;;;;;;;;;11.80;11.80;;;;;23.05;38.75;98539.84;5046740;28;8974;-78
2022/04/24 08:08:21;;;;;;;;;12.40;12.40;;;;;23.09;38.94;98524.53;5064597;28;8845;-79
2022/04/24 08:10:51;;;;;;;;;14.20;11.40;;;;;23.11;38.95;98522.59;5066772;28;8858;-79
2022/04/24 08:13:22;;;;;;;;;11.60;11.60;;;;;23.19;38.48;98522.91;5069261;28;9654;-79
2022/04/24 08:15:51;;;;;;;;;10.00;8.80;;;;;23.35;38.16;98520.06;5069943;28;8878;-78
2022/04/24 08:18:20;;;;;;;;;9.80;8.80;;;;;23.48;37.59;98531.56;5069715;28;8858;-79
2022/04/24 08:20:49;;;;;;;;;11.20;11.20;;;;;23.60;36.89;98521.00;5051034;28;8947;-79
2022/04/24 08:23:19;;;;;;;;;9.40;9.40;;;;;23.74;36.23;98520.84;5069318;28;8965;-79
2022/04/24 08:25:48;;;;;;;;;9.20;8.60;;;;;23.82;36.35;98517.69;5051985;28;8981;-78
2022/04/24 08:28:16;;;;;;;;;11.00;9.80;;;;;23.90;36.43;98510.00;5069395;28;8846;-78
2022/04/24 08:30:48;;;;;;;;;8.80;8.80;;;;;23.85;36.78;98504.16;5069329;28;8968;-78
2022/04/24 08:33:18;;;;;;;;;7.20;7.20;;;;;23.73;35.41;98504.03;5033644;28;8842;-78
2022/04/24 08:35:48;;;;;;;;;9.00;8.20;;;;;23.66;35.02;98502.78;5050941;28;8870;-79
2022/04/24 08:38:17;;;;;;;;;7.80;7.40;;;;;23.66;34.88;98500.13;5068899;28;8869;-78
2022/04/24 08:40:47;;;;;;;;;8.60;7.60;;;;;23.70;35.06;98498.94;5101155;28;8874;-78
2022/04/24 08:43:16;;;;;;;;;9.00;7.60;;;;;23.68;35.03;98502.66;5067599;28;8869;-78
2022/04/24 08:45:49;;;;;;;;;8.40;7.60;;;;;23.77;35.27;98495.84;5069037;28;8895;-78
2022/04/24 08:48:19;;;;;;;;;10.00;7.80;;;;;23.89;35.10;98492.31;5084306;28;8889;-79
2022/04/24 08:50:48;;;;;;;;;7.40;6.60;;;;;23.93;35.34;98485.81;5049526;28;8985;-78
2022/04/24 08:53:17;;;;;;;;;7.00;7.00;;;;;24.01;34.81;98491.44;5083601;28;8834;-80
2022/04/24 08:55:47;;;;;;;;;8.40;6.80;;;;;24.06;35.06;98493.75;5067011;28;8870;-78
2022/04/24 08:58:16;;;;;;;;;6.20;6.20;;;;;24.18;34.68;98497.31;5068388;28;8862;-80
2022/04/24 09:00:46;;;;;;;;;8.00;7.00;;;;;24.22;34.13;98485.50;5034757;28;9630;-79
2022/04/24 09:03:15;;;;;;;;;9.20;7.80;;;;;24.28;35.04;98488.56;5053992;28;8845;-80
2022/04/24 09:05:44;;;;;;;;;7.00;7.00;;;;;24.37;34.04;98497.69;5054126;28;8876;-78
2022/04/24 09:08:14;;;;;;;;;8.80;7.80;;;;;24.46;33.93;98494.34;5052537;28;8852;-79
2022/04/24 09:11:03;;;;;;;;;6.00;5.40;;;;;24.59;33.44;98501.44;5051438;28;8957;-80
2022/04/24 09:14:14;;;;;;;;;5.20;5.20;;;;;24.56;33.46;98496.34;5052637;28;8938;-79
2022/04/24 09:16:34;;;;;;;;;4.80;4.20;;;;;24.57;33.44;98495.38;5033718;28;8837;-80
2022/04/24 09:19:04;;;;;;;;;5.60;4.00;;;;;24.73;33.67;98500.41;5051763;28;8841;-79
2022/04/24 09:21:32;;;;;;;;;7.80;6.60;;;;;24.88;33.26;98491.25;5067274;28;8826;-80
2022/04/24 09:24:01;;;;;;;;;6.00;6.00;;;;;25.03;31.16;98490.06;5052094;28;8864;-77
2022/04/24 09:26:30;;;;;;;;;5.40;5.40;;;;;25.15;31.97;98482.94;5049939;28;8841;-80
2022/04/24 09:29:12;;;;;;;;;5.00;5.00;;;;;25.17;31.55;98482.81;5021138;28;8836;-78
2022/04/24 09:31:46;;;;;;;;;5.60;5.60;;;;;25.23;31.56;98482.34;5051107;28;8890;-79
2022/04/24 09:34:16;;;;;;;;;8.00;7.40;;;;;25.41;31.52;98478.25;5052228;28;8845;-79
2022/04/24 09:36:45;;;;;;;;;8.20;6.60;;;;;25.47;31.83;98480.44;5049634;28;9022;-79
2022/04/24 09:39:14;;;;;;;;;4.60;4.60;;;;;25.48;30.36;98476.81;5051479;28;8909;-81
2022/04/24 09:41:42;;;;;;;;;6.40;6.20;;;;;25.19;30.78;98479.03;5051848;28;8879;-80
2022/04/24 09:44:16;;;;;;;;;6.20;5.00;;;;;25.54;30.56;98469.25;5051559;28;8860;-79
2022/04/24 09:46:48;;;;;;;;;7.00;7.00;;;;;25.60;31.35;98472.28;5050499;28;8869;-79
2022/04/24 09:49:17;;;;;;;;;6.20;6.00;;;;;25.56;30.67;98469.97;5051470;28;8849;-79
2022/04/24 09:51:46;;;;;;;;;7.40;6.40;;;;;25.83;29.37;98474.94;5055447;28;8891;-79
2022/04/24 09:54:15;;;;;;;;;5.60;4.80;;;;;25.97;28.75;98468.50;5021370;28;8884;-80
2022/04/24 09:56:45;;;;;;;;;4.20;4.20;;;;;26.22;29.07;98470.88;5016868;28;8852;-79
2022/04/24 09:59:14;;;;;;;;;4.20;4.20;;;;;26.13;27.50;98462.78;5017067;28;8884;-79
2022/04/24 10:01:42;;;;;;;;;6.60;5.80;;;;;26.41;27.30;98469.34;5052674;28;8849;-79
2022/04/24 10:04:13;;;;;;;;;21.00;18.40;;;;;26.57;27.86;98466.25;5051551;28;8864;-79
2022/04/24 10:06:42;;;;;;;;;45.50;36.75;;;;;26.78;28.42;98472.47;5033555;28;8857;-79
2022/04/24 10:09:14;;;;;;;;;11.00;9.80;;;;;26.88;27.94;98456.50;5051902;28;8844;-79
2022/04/24 10:11:43;;;;;;;;;4.40;4.00;;;;;26.61;27.07;98467.69;5049833;28;8868;-79
2022/04/24 10:14:15;;;;;;;;;7.40;6.00;;;;;26.64;28.03;98473.66;5066748;28;8868;-79
2022/04/24 10:17:09;;;;;;;;;3.00;3.00;;;;;26.84;27.70;98469.28;5050608;28;8869;-80
2022/04/24 10:19:56;;;;;;;;;5.00;4.80;;;;;27.04;27.06;98467.56;4989841;28;8830;-79
2022/04/24 10:22:38;;;;;;;;;6.40;5.40;;;;;26.72;26.83;98467.66;4989176;28;8880;-79
2022/04/24 10:25:09;;;;;;;;;5.80;5.20;;;;;26.55;27.64;98477.06;4973121;28;8854;-80
2022/04/24 10:27:39;;;;;;;;;4.00;4.00;;;;;26.85;27.86;98462.09;4988902;28;8861;-80
2022/04/24 10:30:13;;;;;;;;;7.00;6.00;;;;;26.73;27.65;98469.34;4957040;28;8890;-79
2022/04/24 10:32:45;;;;;;;;;14.80;14.80;;;;;26.89;28.37;98465.38;4988950;28;8842;-79
2022/04/24 10:35:18;;;;;;;;;6.00;6.00;;;;;27.10;28.65;98460.00;4989154;28;8892;-79
2022/04/24 10:37:49;;;;;;;;;17.80;17.80;;;;;27.29;28.21;98462.81;4988839;28;8882;-79
2022/04/24 10:40:20;;;;;;;;;22.20;22.20;;;;;27.33;28.10;98458.88;4988913;28;8858;-78
2022/04/24 10:42:49;;;;;;;;;8.60;6.80;;;;;27.46;27.75;98457.81;5004725;28;8858;-79
2022/04/24 10:45:20;;;;;;;;;7.00;7.00;;;;;27.33;28.30;98453.50;4972581;28;8853;-79
2022/04/24 10:47:58;;;;;;;;;7.20;6.20;;;;;27.44;27.96;98459.78;4972565;28;8861;-80
2022/04/24 10:50:28;;;;;;;;;5.00;4.20;;;;;27.29;28.24;98464.63;4973238;28;8858;-80
2022/04/24 10:52:56;;;;;;;;;0.40;0.00;;;;;27.54;27.86;98461.50;4974440;28;8861;-78
2022/04/24 10:55:27;;;;;;;;;4.00;3.00;;;;;27.63;27.72;98450.97;4973805;28;8819;-79
2022/04/24 10:57:59;;;;;;;;;54.25;42.50;;;;;27.80;27.88;98459.19;5044032;28;8880;-78
2022/04/24 11:00:32;;;;;;;;;7.80;6.40;;;;;27.75;27.57;98457.91;5051128;28;9022;-79
2022/04/24 11:03:11;;;;;;;;;8.00;6.00;;;;;27.42;27.96;98463.41;5050891;28;8852;-79
2022/04/24 11:05:45;;;;;;;;;7.40;6.40;;;;;27.57;28.80;98458.56;5050691;28;8837;-78
2022/04/24 11:08:18;;;;;;;;;6.00;5.80;;;;;27.77;28.70;98451.44;5049238;28;8956;-80
2022/04/24 11:10:49;;;;;;;;;4.40;4.40;;;;;27.99;28.97;98455.72;5065550;28;8852;-79
2022/04/24 11:13:19;;;;;;;;;5.40;4.40;;;;;28.19;28.93;98450.41;5048949;28;9579;-79
2022/04/24 11:15:50;;;;;;;;;6.40;6.40;;;;;28.30;28.43;98455.63;5050480;28;8825;-78
2022/04/24 11:18:23;;;;;;;;;5.60;5.20;;;;;28.42;27.44;98447.44;5049814;28;8868;-80
2022/04/24 11:21:01;;;;;;;;;5.60;5.00;;;;;28.25;28.76;98455.19;5049210;28;8950;-80
2022/04/24 11:23:32;;;;;;;;;6.40;5.00;;;;;28.44;27.62;98453.53;5049466;28;9573;-79
2022/04/24 11:26:02;;;;;;;;;6.40;6.40;;;;;28.51;27.72;98454.66;5050279;28;8883;-79
2022/04/24 11:28:36;;;;;;;;;5.00;5.00;;;;;28.56;27.60;98450.59;5048847;28;8979;-78
2022/04/24 11:31:13;;;;;;;;;6.60;5.60;;;;;28.63;27.44;98448.16;5049095;28;8867;-79
2022/04/24 11:33:53;;;;;;;;;5.80;4.00;;;;;28.61;27.97;98447.47;5082273;28;8845;-78
2022/04/24 11:36:24;;;;;;;;;4.60;3.80;;;;;28.65;28.61;98446.19;5048775;28;8910;-79
2022/04/24 11:38:53;;;;;;;;;3.60;2.80;;;;;28.70;28.45;98445.78;5049433;28;8884;-78
2022/04/24 11:41:24;;;;;;;;;4.40;4.00;;;;;28.66;28.27;98445.22;5049607;28;9018;-78
2022/04/24 11:44:00;;;;;;;;;5.00;5.00;;;;;28.70;28.62;98437.72;5049589;28;8885;-78
2022/04/24 11:52:41;;;;;;;;;14.80;14.00;;;;;28.89;27.99;98443.03;4971397;28;8876;-78